Shao Shan 5 — VRKO9 — position and weather

sailwx.info

Track history (hours):
 
Tides and Currents Weather Stations Pressure Air Temp Water Temp Dewpoint Dewpoint Depression Visibility Wind Speed Wind Dir Waves Ship Positions

Shao Shan 5

Last reported at 2016-Apr-27 11:33 UTC. Time now 2016-Apr-29 15:54 UTC.
Position N 36°49' W 075°41'.

Length 225 m; draft 14.6 m.

Type: Cargo ship. MMSI: 477325700.

Date/timePositionNaut miles runAvg speedWind from/ knotsBaromVisibWave heightAir tempDewpointWater temp
2016-Apr-27 11:33N 36°49' W 075°41'9 9.2
2016-Apr-27 10:33N 36°52' W 075°52'9 8.9
2016-Apr-27 09:33N 36°57' W 076°01'14 1.3
2016-Apr-26 22:23N 36°60' W 076°19'2 2.5
2016-Apr-26 21:25N 37°00' W 076°16'7 8.2
2016-Apr-26 20:33N 36°59' W 076°08'6 6.0
2016-Apr-26 19:33N 36°59' W 076°00'12 9.1
2016-Apr-26 18:13N 37°09' W 076°09'44 9.1
2016-Apr-26 13:25N 37°52' W 076°10'1112.0
2016-Apr-26 12:31N 38°03' W 076°13'3811.4
2016-Apr-26 09:13N 38°39' W 076°25'711.1
2016-Apr-26 08:33N 38°47' W 076°25'1211.7
2016-Apr-26 07:33N 38°58' W 076°23'8 8.2
2016-Apr-26 06:33N 39°06' W 076°24'8 8.0
2016-Apr-26 05:34N 39°12' W 076°31'3 3.0
2016-Apr-26 04:29N 39°13' W 076°35'0 0.0
2016-Apr-26 03:32N 39°13' W 076°35'0 0.0
2016-Apr-26 02:32N 39°13' W 076°35'0 0.0
2016-Apr-26 01:32N 39°13' W 076°35'0 0.0
2016-Apr-26 00:32N 39°13' W 076°35'0 0.0
2016-Apr-25 23:29N 39°13' W 076°35'0 0.0
2016-Apr-25 22:29N 39°13' W 076°35'0 0.0
2016-Apr-25 21:32N 39°13' W 076°35'0 0.0
2016-Apr-25 20:32N 39°13' W 076°35'0 0.0
2016-Apr-25 19:32N 39°13' W 076°35'0 0.0
2016-Apr-25 18:32N 39°13' W 076°35'0 0.0
2016-Apr-25 17:32N 39°13' W 076°35'0 0.0
2016-Apr-25 16:32N 39°13' W 076°35'0 0.0
2016-Apr-25 15:29N 39°13' W 076°35'0 0.0
2016-Apr-25 14:32N 39°13' W 076°35'0 0.0
2016-Apr-25 13:29N 39°13' W 076°35'0 0.0
2016-Apr-25 12:32N 39°13' W 076°35'0 0.0
2016-Apr-25 11:32N 39°13' W 076°35'0 0.0
2016-Apr-25 10:32N 39°13' W 076°35'0 0.0
2016-Apr-25 09:32N 39°13' W 076°35'0 0.0
2016-Apr-25 08:32N 39°13' W 076°35'0 0.0
2016-Apr-25 07:32N 39°13' W 076°35'0 0.0
2016-Apr-25 06:32N 39°13' W 076°35'0 0.0
2016-Apr-25 05:32N 39°13' W 076°35'0 0.0
2016-Apr-25 04:32N 39°13' W 076°35'0 0.0
2016-Apr-25 03:32N 39°13' W 076°35'0 0.0
2016-Apr-25 02:32N 39°13' W 076°35'0 0.0
2016-Apr-25 01:32N 39°13' W 076°35'0 0.0
2016-Apr-25 00:32N 39°13' W 076°35'0 0.0
2016-Apr-24 23:32N 39°13' W 076°35'0 0.0
2016-Apr-24 22:32N 39°13' W 076°35'0 0.0
2016-Apr-24 21:32N 39°13' W 076°35'0 0.0
2016-Apr-24 20:32N 39°13' W 076°35'0 0.0
2016-Apr-24 19:32N 39°13' W 076°35'0 0.0
2016-Apr-24 18:32N 39°13' W 076°35'0 0.0
2016-Apr-24 17:32N 39°13' W 076°35'0 0.0
2016-Apr-24 16:32N 39°13' W 076°35'0 0.0
2016-Apr-24 15:32N 39°13' W 076°35'0 0.0
2016-Apr-24 14:32N 39°13' W 076°35'0 0.0
2016-Apr-24 13:32N 39°13' W 076°35'0 0.0
2016-Apr-24 12:32N 39°13' W 076°35'0 0.0
2016-Apr-24 11:32N 39°13' W 076°35'0 0.0
2016-Apr-24 10:33N 39°13' W 076°35'2 1.9
2016-Apr-24 09:33N 39°14' W 076°32'0 0.1
2016-Apr-24 08:31N 39°14' W 076°32'0 0.0
2016-Apr-24 07:31N 39°14' W 076°32'0 0.0
2016-Apr-24 06:31N 39°14' W 076°32'0 0.0
2016-Apr-24 05:31N 39°14' W 076°32'0 0.0
2016-Apr-24 04:31N 39°14' W 076°32'0 0.0
2016-Apr-24 03:31N 39°14' W 076°32'0 0.0
2016-Apr-24 02:31N 39°14' W 076°33'0 0.1
2016-Apr-24 01:31N 39°14' W 076°32'0 0.0
2016-Apr-24 00:31N 39°14' W 076°32'0 0.0
2016-Apr-23 23:31N 39°14' W 076°32'0 0.0
2016-Apr-23 21:20N 39°14' W 076°32'0 0.1
2016-Apr-23 20:34N 39°14' W 076°33'6 5.8
2016-Apr-23 19:33N 39°11' W 076°26'1211.8
2016-Apr-23 18:33N 38°59' W 076°23'5 4.7
2016-Apr-23 17:33N 38°55' W 076°25'0 0.0
2016-Apr-23 16:33N 38°55' W 076°25'0 0.0
2016-Apr-23 15:33N 38°55' W 076°25'0 0.0
2016-Apr-23 14:33N 38°55' W 076°25'0 0.0
2016-Apr-23 13:33N 38°55' W 076°25'0 0.2
2016-Apr-23 12:30N 38°55' W 076°25'0 0.0
2016-Apr-23 11:33N 38°55' W 076°25'0 0.0
2016-Apr-23 10:33N 38°55' W 076°25'0 0.0
2016-Apr-23 09:33N 38°55' W 076°25'0 0.0
2016-Apr-23 08:33N 38°55' W 076°25'0 0.1
2016-Apr-23 07:33N 38°55' W 076°25'0 0.1
2016-Apr-23 06:33N 38°55' W 076°25'0 0.0
2016-Apr-23 05:33N 38°55' W 076°25'0 0.0
2016-Apr-23 04:33N 38°55' W 076°25'0 0.0
2016-Apr-23 03:33N 38°55' W 076°25'0 0.2
2016-Apr-23 02:30N 38°55' W 076°25'0 0.1
2016-Apr-23 01:33N 38°55' W 076°25'0 0.0
2016-Apr-23 00:33N 38°55' W 076°25'0 0.0
2016-Apr-22 23:33N 38°55' W 076°25'1 0.6
2016-Apr-22 22:33N 38°55' W 076°24'1511.3
2016-Apr-22 21:13N 38°40' W 076°25'2513.6
2016-Apr-22 19:23N 38°16' W 076°17'1113.5
2016-Apr-22 18:33N 38°05' W 076°13'4613.6
2016-Apr-22 15:12N 37°20' W 076°06'1014.5
2016-Apr-22 14:33N 37°11' W 076°09'1414.0
2016-Apr-22 13:33N 36°59' W 076°00'10 9.6
2016-Apr-22 12:33N 36°53' W 075°52'  
Track history (hours):
 
Tides and Currents Weather Stations Pressure Air Temp Water Temp Dewpoint Dewpoint Depression Visibility Wind Speed Wind Dir Waves Ship Positions

Shao Shan 5

Last reported at 2016-Apr-27 11:33 UTC. Time now 2016-Apr-29 15:54 UTC.
Position N 36°49' W 075°41'.

Length 225 m; draft 14.6 m.

Type: Cargo ship. MMSI: 477325700.

Date/timePositionNaut miles runAvg speedWind from/ knotsBaromVisibWave heightAir tempDewpointWater temp
2016-Apr-27 11:33N 36°49' W 075°41'9 9.2
2016-Apr-27 10:33N 36°52' W 075°52'9 8.9
2016-Apr-27 09:33N 36°57' W 076°01'14 1.3
2016-Apr-26 22:23N 36°60' W 076°19'2 2.5
2016-Apr-26 21:25N 37°00' W 076°16'7 8.2
2016-Apr-26 20:33N 36°59' W 076°08'6 6.0
2016-Apr-26 19:33N 36°59' W 076°00'12 9.1
2016-Apr-26 18:13N 37°09' W 076°09'44 9.1
2016-Apr-26 13:25N 37°52' W 076°10'1112.0
2016-Apr-26 12:31N 38°03' W 076°13'3811.4
2016-Apr-26 09:13N 38°39' W 076°25'711.1
2016-Apr-26 08:33N 38°47' W 076°25'1211.7
2016-Apr-26 07:33N 38°58' W 076°23'8 8.2
2016-Apr-26 06:33N 39°06' W 076°24'8 8.0
2016-Apr-26 05:34N 39°12' W 076°31'3 3.0
2016-Apr-26 04:29N 39°13' W 076°35'0 0.0
2016-Apr-26 03:32N 39°13' W 076°35'0 0.0
2016-Apr-26 02:32N 39°13' W 076°35'0 0.0
2016-Apr-26 01:32N 39°13' W 076°35'0 0.0
2016-Apr-26 00:32N 39°13' W 076°35'0 0.0
2016-Apr-25 23:29N 39°13' W 076°35'0 0.0
2016-Apr-25 22:29N 39°13' W 076°35'0 0.0
2016-Apr-25 21:32N 39°13' W 076°35'0 0.0
2016-Apr-25 20:32N 39°13' W 076°35'0 0.0
2016-Apr-25 19:32N 39°13' W 076°35'0 0.0
2016-Apr-25 18:32N 39°13' W 076°35'0 0.0
2016-Apr-25 17:32N 39°13' W 076°35'0 0.0
2016-Apr-25 16:32N 39°13' W 076°35'0 0.0
2016-Apr-25 15:29N 39°13' W 076°35'0 0.0
2016-Apr-25 14:32N 39°13' W 076°35'0 0.0
2016-Apr-25 13:29N 39°13' W 076°35'0 0.0
2016-Apr-25 12:32N 39°13' W 076°35'0 0.0
2016-Apr-25 11:32N 39°13' W 076°35'0 0.0
2016-Apr-25 10:32N 39°13' W 076°35'0 0.0
2016-Apr-25 09:32N 39°13' W 076°35'0 0.0
2016-Apr-25 08:32N 39°13' W 076°35'0 0.0
2016-Apr-25 07:32N 39°13' W 076°35'0 0.0
2016-Apr-25 06:32N 39°13' W 076°35'0 0.0
2016-Apr-25 05:32N 39°13' W 076°35'0 0.0
2016-Apr-25 04:32N 39°13' W 076°35'0 0.0
2016-Apr-25 03:32N 39°13' W 076°35'0 0.0
2016-Apr-25 02:32N 39°13' W 076°35'0 0.0
2016-Apr-25 01:32N 39°13' W 076°35'0 0.0
2016-Apr-25 00:32N 39°13' W 076°35'0 0.0
2016-Apr-24 23:32N 39°13' W 076°35'0 0.0
2016-Apr-24 22:32N 39°13' W 076°35'0 0.0
2016-Apr-24 21:32N 39°13' W 076°35'0 0.0
2016-Apr-24 20:32N 39°13' W 076°35'0 0.0
2016-Apr-24 19:32N 39°13' W 076°35'0 0.0
2016-Apr-24 18:32N 39°13' W 076°35'0 0.0
2016-Apr-24 17:32N 39°13' W 076°35'0 0.0
2016-Apr-24 16:32N 39°13' W 076°35'0 0.0
2016-Apr-24 15:32N 39°13' W 076°35'0 0.0
2016-Apr-24 14:32N 39°13' W 076°35'0 0.0
2016-Apr-24 13:32N 39°13' W 076°35'0 0.0
2016-Apr-24 12:32N 39°13' W 076°35'0 0.0
2016-Apr-24 11:32N 39°13' W 076°35'0 0.0
2016-Apr-24 10:33N 39°13' W 076°35'2 1.9
2016-Apr-24 09:33N 39°14' W 076°32'0 0.1
2016-Apr-24 08:31N 39°14' W 076°32'0 0.0
2016-Apr-24 07:31N 39°14' W 076°32'0 0.0
2016-Apr-24 06:31N 39°14' W 076°32'0 0.0
2016-Apr-24 05:31N 39°14' W 076°32'0 0.0
2016-Apr-24 04:31N 39°14' W 076°32'0 0.0
2016-Apr-24 03:31N 39°14' W 076°32'0 0.0
2016-Apr-24 02:31N 39°14' W 076°33'0 0.1
2016-Apr-24 01:31N 39°14' W 076°32'0 0.0
2016-Apr-24 00:31N 39°14' W 076°32'0 0.0
2016-Apr-23 23:31N 39°14' W 076°32'0 0.0
2016-Apr-23 21:20N 39°14' W 076°32'0 0.1
2016-Apr-23 20:34N 39°14' W 076°33'6 5.8
2016-Apr-23 19:33N 39°11' W 076°26'1211.8
2016-Apr-23 18:33N 38°59' W 076°23'5 4.7
2016-Apr-23 17:33N 38°55' W 076°25'0 0.0
2016-Apr-23 16:33N 38°55' W 076°25'0 0.0
2016-Apr-23 15:33N 38°55' W 076°25'0 0.0
2016-Apr-23 14:33N 38°55' W 076°25'0 0.0
2016-Apr-23 13:33N 38°55' W 076°25'0 0.2
2016-Apr-23 12:30N 38°55' W 076°25'0 0.0
2016-Apr-23 11:33N 38°55' W 076°25'0 0.0
2016-Apr-23 10:33N 38°55' W 076°25'0 0.0
2016-Apr-23 09:33N 38°55' W 076°25'0 0.0
2016-Apr-23 08:33N 38°55' W 076°25'0 0.1
2016-Apr-23 07:33N 38°55' W 076°25'0 0.1
2016-Apr-23 06:33N 38°55' W 076°25'0 0.0
2016-Apr-23 05:33N 38°55' W 076°25'0 0.0
2016-Apr-23 04:33N 38°55' W 076°25'0 0.0
2016-Apr-23 03:33N 38°55' W 076°25'0 0.2
2016-Apr-23 02:30N 38°55' W 076°25'0 0.1
2016-Apr-23 01:33N 38°55' W 076°25'0 0.0
2016-Apr-23 00:33N 38°55' W 076°25'0 0.0
2016-Apr-22 23:33N 38°55' W 076°25'1 0.6
2016-Apr-22 22:33N 38°55' W 076°24'1511.3
2016-Apr-22 21:13N 38°40' W 076°25'2513.6
2016-Apr-22 19:23N 38°16' W 076°17'1113.5
2016-Apr-22 18:33N 38°05' W 076°13'4613.6
2016-Apr-22 15:12N 37°20' W 076°06'1014.5
2016-Apr-22 14:33N 37°11' W 076°09'1414.0
2016-Apr-22 13:33N 36°59' W 076°00'10 9.6
2016-Apr-22 12:33N 36°53' W 075°52'  

Dump ship's entire track history